Time;durP1;ratioP1;P1;durP2;ratioP2;P2;SDS_P1;SDS_P2;PMS_P1;PMS_P2;Temp;Humidity;BMP_temperature;BMP_pressure;BME280_temperature;BME280_humidity;BME280_pressure;Samples;Min_cycle;Max_cycle;Signal;HPM_P1;HPM_P2
2023/06/21 00:02:13;;;;;;;0.10;0.10;;;13.80;65.90;;;;;;5073800;28;20272;-46
2023/06/21 00:04:43;;;;;;;0.10;0.10;;;13.80;65.90;;;;;;5073699;28;20248;-49
2023/06/21 00:07:14;;;;;;;0.10;0.10;;;13.90;66.00;;;;;;5073595;28;20226;-49
2023/06/21 00:09:46;;;;;;;0.10;0.10;;;13.90;66.10;;;;;;5073272;28;20485;-46
2023/06/21 00:12:17;;;;;;;0.10;0.10;;;13.90;66.10;;;;;;5073525;28;20198;-46
2023/06/21 00:14:48;;;;;;;0.10;0.10;;;14.00;66.20;;;;;;5073193;28;20670;-48
2023/06/21 00:17:18;;;;;;;0.10;0.10;;;14.00;66.20;;;;;;5073114;28;20215;-47
2023/06/21 00:19:49;;;;;;;0.10;0.10;;;14.00;66.20;;;;;;5072883;28;20206;-48
2023/06/21 00:22:21;;;;;;;0.10;0.10;;;14.00;66.20;;;;;;5072571;28;20222;-47
2023/06/21 00:24:54;;;;;;;0.10;0.10;;;14.00;66.20;;;;;;5062585;28;20199;-49
2023/06/21 00:27:25;;;;;;;0.10;0.10;;;14.00;66.10;;;;;;5053115;28;20219;-50
2023/06/21 00:29:55;;;;;;;0.10;0.10;;;14.00;66.10;;;;;;5053331;28;20192;-48
2023/06/21 00:32:26;;;;;;;0.10;0.10;;;14.00;66.10;;;;;;5053290;28;20651;-47
2023/06/21 00:34:57;;;;;;;0.10;0.10;;;14.10;66.20;;;;;;5052739;28;20195;-47
2023/06/21 00:37:28;;;;;;;0.10;0.10;;;14.10;66.20;;;;;;5052789;28;20212;-52
2023/06/21 00:40:00;;;;;;;0.10;0.10;;;14.10;66.20;;;;;;5069984;28;20233;-48
2023/06/21 00:42:31;;;;;;;0.10;0.10;;;14.20;66.30;;;;;;5058101;28;20589;-48
2023/06/21 00:45:02;;;;;;;0.10;0.10;;;14.10;66.20;;;;;;5052346;28;20199;-54
2023/06/21 00:47:32;;;;;;;0.10;0.10;;;14.20;66.20;;;;;;5052082;28;20265;-49
2023/06/21 00:50:03;;;;;;;0.10;0.10;;;14.20;66.20;;;;;;5052457;28;20694;-47
2023/06/21 00:52:37;;;;;;;0.10;0.10;;;14.20;66.30;;;;;;5052219;28;20202;-48
2023/06/21 00:55:12;;;;;;;0.10;0.10;;;14.20;66.20;;;;;;5052538;28;20286;-49
2023/06/21 00:57:45;;;;;;;0.10;0.10;;;14.30;66.30;;;;;;5052547;28;20211;-47
2023/06/21 01:00:19;;;;;;;0.10;0.10;;;14.30;66.40;;;;;;5052705;28;20253;-53
2023/06/21 01:02:51;;;;;;;0.10;0.10;;;14.30;66.30;;;;;;5052423;28;20226;-52
2023/06/21 01:05:24;;;;;;;0.10;0.10;;;14.30;66.40;;;;;;5052719;28;20660;-50
2023/06/21 01:08:05;;;;;;;0.10;0.10;;;14.30;66.30;;;;;;5051856;28;20695;-47
2023/06/21 01:10:49;;;;;;;0.10;0.10;;;14.40;66.40;;;;;;5071914;28;20195;-50
2023/06/21 01:13:32;;;;;;;0.10;0.10;;;14.30;66.40;;;;;;5072047;28;20236;-48
2023/06/21 01:16:09;;;;;;;0.10;0.10;;;14.40;66.40;;;;;;5051662;28;20659;-50
2023/06/21 01:18:40;;;;;;;0.10;0.10;;;14.40;66.50;;;;;;5051912;28;20307;-49
2023/06/21 01:21:18;;;;;;;0.10;0.10;;;14.40;66.50;;;;;;5052293;28;20191;-52
2023/06/21 01:24:29;;;;;;;0.10;0.10;;;14.50;66.50;;;;;;5051639;28;20305;-48
2023/06/21 01:27:18;;;;;;;0.10;0.10;;;14.50;66.60;;;;;;5051783;28;20196;-49
2023/06/21 01:29:55;;;;;;;0.10;0.10;;;14.50;66.50;;;;;;5051444;28;20222;-48
2023/06/21 01:32:28;;;;;;;0.10;0.10;;;14.50;66.50;;;;;;5051634;28;20654;-52
2023/06/21 01:35:01;;;;;;;0.10;0.10;;;14.50;66.50;;;;;;5050929;28;20218;-49
2023/06/21 01:37:31;;;;;;;0.10;0.10;;;14.60;66.60;;;;;;5051623;28;20695;-47
2023/06/21 01:40:11;;;;;;;0.10;0.10;;;14.60;66.70;;;;;;5069689;28;20206;-47
2023/06/21 01:42:41;;;;;;;0.10;0.10;;;14.60;66.70;;;;;;5071583;28;20222;-49
2023/06/21 01:45:15;;;;;;;0.10;0.10;;;14.60;67.10;;;;;;5071670;28;20202;-50
2023/06/21 01:47:46;;;;;;;0.10;0.10;;;14.70;67.70;;;;;;5072068;28;20340;-50
2023/06/21 01:50:18;;;;;;;0.10;0.10;;;14.70;67.60;;;;;;5071813;28;20205;-46
2023/06/21 01:52:51;;;;;;;0.10;0.10;;;14.70;67.50;;;;;;5071867;28;20634;-49
2023/06/21 01:55:23;;;;;;;0.10;0.10;;;14.80;67.50;;;;;;5071643;28;20198;-54
2023/06/21 01:57:56;;;;;;;0.10;0.10;;;14.80;67.40;;;;;;5071488;28;20221;-50
2023/06/21 02:00:29;;;;;;;0.00;0.00;;;14.80;67.40;;;;;;5071229;28;20202;-48
2023/06/21 02:03:03;;;;;;;0.10;0.10;;;14.90;67.30;;;;;;5071271;28;20226;-49
2023/06/21 02:05:35;;;;;;;0.10;0.10;;;14.90;67.30;;;;;;5071419;28;20202;-51
2023/06/21 02:08:11;;;;;;;0.03;0.03;;;14.90;67.30;;;;;;5071185;28;20222;-52
2023/06/21 02:10:42;;;;;;;0.10;0.10;;;14.90;67.20;;;;;;5072074;28;20243;-47
2023/06/21 02:13:13;;;;;;;0.10;0.10;;;14.90;67.10;;;;;;5071389;28;20206;-50
2023/06/21 02:15:48;;;;;;;0.05;0.05;;;15.00;67.20;;;;;;5071115;28;20230;-53
2023/06/21 02:18:23;;;;;;;0.10;0.10;;;15.00;67.10;;;;;;5071954;28;20218;-50
2023/06/21 02:20:54;;;;;;;0.10;0.10;;;15.10;67.10;;;;;;5075452;28;20209;-50
2023/06/21 02:23:25;;;;;;;0.10;0.10;;;15.10;67.10;;;;;;5075204;28;20230;-54
2023/06/21 02:25:56;;;;;;;0.10;0.10;;;15.10;67.00;;;;;;5075282;28;20198;-52
2023/06/21 02:28:26;;;;;;;0.10;0.10;;;15.10;67.00;;;;;;5075287;28;20240;-54
2023/06/21 02:30:59;;;;;;;0.10;0.10;;;15.10;67.00;;;;;;5075307;28;20197;-49
2023/06/21 02:33:31;;;;;;;0.10;0.10;;;15.20;67.80;;;;;;5056048;28;20187;-54
2023/06/21 02:36:01;;;;;;;0.10;0.10;;;15.20;67.00;;;;;;5054966;28;20194;-52
2023/06/21 02:38:32;;;;;;;0.10;0.10;;;15.20;67.00;;;;;;5059974;28;20690;-52
2023/06/21 02:41:03;;;;;;;0.10;0.10;;;15.20;66.90;;;;;;5075375;28;20218;-55
2023/06/21 02:43:33;;;;;;;0.10;0.10;;;15.30;67.00;;;;;;5075052;28;20218;-54
2023/06/21 02:46:06;;;;;;;0.10;0.10;;;15.30;67.00;;;;;;5074746;28;20210;-56
2023/06/21 02:48:37;;;;;;;0.10;0.10;;;15.30;67.00;;;;;;5074802;28;20693;-57
2023/06/21 02:51:07;;;;;;;0.00;0.00;;;15.30;67.00;;;;;;5075101;28;20198;-56
2023/06/21 02:53:38;;;;;;;0.10;0.10;;;15.30;67.00;;;;;;5074538;28;20265;-51
2023/06/21 02:56:09;;;;;;;0.10;0.10;;;15.40;67.00;;;;;;5074714;28;20191;-53
2023/06/21 02:58:40;;;;;;;0.10;0.10;;;15.40;66.90;;;;;;5074619;28;20713;-58
2023/06/21 03:01:13;;;;;;;0.15;0.15;;;15.40;66.90;;;;;;5075200;28;20296;-52
2023/06/21 03:03:44;;;;;;;0.10;0.10;;;15.40;66.90;;;;;;5074629;28;20234;-54
2023/06/21 03:06:15;;;;;;;0.03;0.03;;;15.50;66.90;;;;;;5074420;28;20197;-53
2023/06/21 03:08:45;;;;;;;0.10;0.10;;;15.50;66.90;;;;;;5063164;28;20218;-52
2023/06/21 03:11:16;;;;;;;0.10;0.10;;;15.50;66.80;;;;;;5074625;28;20202;-53
2023/06/21 03:13:47;;;;;;;0.13;0.13;;;15.50;67.60;;;;;;5074127;28;20206;-57
2023/06/21 03:16:20;;;;;;;0.10;0.10;;;15.60;66.80;;;;;;5070773;28;20619;-51
2023/06/21 03:18:50;;;;;;;0.10;0.10;;;15.60;66.80;;;;;;5054443;28;20384;-53
2023/06/21 03:21:22;;;;;;;0.10;0.10;;;15.60;66.80;;;;;;5054026;28;20682;-55
2023/06/21 03:23:53;;;;;;;0.10;0.10;;;15.60;66.70;;;;;;5054039;28;20227;-55
2023/06/21 03:26:23;;;;;;;0.10;0.10;;;15.70;66.80;;;;;;5053954;28;20196;-56
2023/06/21 03:28:55;;;;;;;0.10;0.10;;;15.70;66.70;;;;;;5053722;28;20223;-57
2023/06/21 03:31:27;;;;;;;0.10;0.10;;;15.70;66.70;;;;;;5053715;28;20198;-58
2023/06/21 03:33:58;;;;;;;0.10;0.10;;;15.70;66.60;;;;;;5053873;28;20558;-52
2023/06/21 03:36:29;;;;;;;0.10;0.10;;;15.80;66.60;;;;;;5053790;28;20682;-54
2023/06/21 03:39:00;;;;;;;0.10;0.10;;;15.80;66.50;;;;;;5062551;28;20397;-52
2023/06/21 03:41:30;;;;;;;0.10;0.10;;;15.80;66.50;;;;;;5074139;28;20199;-53
2023/06/21 03:44:01;;;;;;;0.10;0.10;;;15.80;66.50;;;;;;5073852;28;20231;-53
2023/06/21 03:46:33;;;;;;;0.10;0.10;;;15.90;66.40;;;;;;5073679;28;20202;-47
2023/06/21 03:49:04;;;;;;;0.03;0.03;;;15.90;66.40;;;;;;5073766;28;20215;-48
2023/06/21 03:51:35;;;;;;;0.10;0.10;;;15.90;66.30;;;;;;5073828;28;20198;-48
2023/06/21 03:54:06;;;;;;;0.10;0.10;;;15.90;66.30;;;;;;5073693;28;20198;-48
2023/06/21 03:56:36;;;;;;;0.00;0.00;;;15.90;66.30;;;;;;5073649;28;20213;-49
2023/06/21 03:59:07;;;;;;;0.08;0.08;;;16.00;66.30;;;;;;5073720;28;20228;-48
2023/06/21 04:01:40;;;;;;;0.10;0.10;;;16.00;66.30;;;;;;5073870;28;20654;-47
2023/06/21 04:04:11;;;;;;;0.00;0.00;;;16.00;66.30;;;;;;5073596;28;20223;-47
2023/06/21 04:06:42;;;;;;;0.10;0.10;;;16.00;66.20;;;;;;5073452;28;20541;-51
2023/06/21 04:09:14;;;;;;;0.10;0.10;;;16.10;66.20;;;;;;5073259;28;20222;-48
2023/06/21 04:11:45;;;;;;;0.10;0.10;;;16.10;66.20;;;;;;5073648;28;20195;-52
2023/06/21 04:14:16;;;;;;;0.00;0.00;;;16.10;66.10;;;;;;5073230;28;20199;-47
2023/06/21 04:16:49;;;;;;;0.05;0.05;;;16.10;66.10;;;;;;5073167;28;20241;-47
2023/06/21 04:19:19;;;;;;;0.10;0.10;;;16.10;66.00;;;;;;5073229;28;20274;-50
2023/06/21 04:21:50;;;;;;;0.00;0.00;;;16.10;65.90;;;;;;5073222;28;20257;-49
2023/06/21 04:24:21;;;;;;;0.00;0.00;;;16.10;65.90;;;;;;5073291;28;20226;-48
2023/06/21 04:26:53;;;;;;;0.10;0.10;;;16.20;65.90;;;;;;5052165;28;20188;-47
2023/06/21 04:29:24;;;;;;;0.10;0.10;;;16.20;65.80;;;;;;5053024;28;20241;-49
2023/06/21 04:31:56;;;;;;;0.10;0.10;;;16.20;66.50;;;;;;5053000;28;20203;-52
2023/06/21 04:34:28;;;;;;;0.10;0.10;;;16.20;65.70;;;;;;5052924;28;20652;-52
2023/06/21 04:36:58;;;;;;;0.00;0.00;;;16.30;65.80;;;;;;5053183;28;20278;-51
2023/06/21 04:39:29;;;;;;;0.10;0.10;;;16.20;65.60;;;;;;5065219;28;20251;-49
2023/06/21 04:42:00;;;;;;;0.10;0.10;;;16.20;65.60;;;;;;5071859;28;20202;-49
2023/06/21 04:44:30;;;;;;;0.00;0.00;;;16.30;65.60;;;;;;5072534;28;20254;-48
2023/06/21 04:47:03;;;;;;;0.10;0.10;;;16.30;65.50;;;;;;5072453;28;20203;-51
2023/06/21 04:49:34;;;;;;;0.10;0.10;;;16.30;65.40;;;;;;5072738;28;20191;-54
2023/06/21 04:52:04;;;;;;;0.10;0.10;;;16.20;65.20;;;;;;5072801;28;20245;-51
2023/06/21 04:54:35;;;;;;;0.10;0.10;;;16.20;65.10;;;;;;5072879;28;20210;-51
2023/06/21 04:57:06;;;;;;;0.10;0.10;;;16.20;65.10;;;;;;5072741;28;20202;-47
2023/06/21 04:59:37;;;;;;;0.10;0.10;;;16.20;65.00;;;;;;5072533;28;20205;-53
2023/06/21 05:02:10;;;;;;;0.10;0.10;;;16.20;65.00;;;;;;5072251;28;20203;-51
2023/06/21 05:04:40;;;;;;;0.08;0.08;;;16.20;65.10;;;;;;5072475;28;20230;-49
2023/06/21 05:07:11;;;;;;;0.10;0.10;;;16.20;65.10;;;;;;5072106;28;20203;-50
2023/06/21 05:09:42;;;;;;;0.20;0.20;;;16.20;65.20;;;;;;5072080;28;20541;-50
2023/06/21 05:12:13;;;;;;;0.17;0.17;;;16.20;65.20;;;;;;5064233;28;20561;-50
2023/06/21 05:14:43;;;;;;;0.00;0.00;;;16.20;65.90;;;;;;5051858;28;20199;-50
2023/06/21 05:17:16;;;;;;;0.10;0.10;;;16.20;65.00;;;;;;5051568;28;20230;-48
2023/06/21 05:19:47;;;;;;;0.08;0.08;;;16.20;65.00;;;;;;5052123;28;20705;-48
2023/06/21 05:22:17;;;;;;;0.10;0.10;;;16.20;64.90;;;;;;5051853;28;20659;-48
2023/06/21 05:24:48;;;;;;;0.00;0.00;;;16.20;64.80;;;;;;5051238;28;20226;-53
2023/06/21 05:27:19;;;;;;;0.10;0.10;;;16.10;64.70;;;;;;5050876;28;20215;-48
2023/06/21 05:29:49;;;;;;;0.10;0.10;;;16.10;64.60;;;;;;5052051;28;20199;-51
2023/06/21 05:32:24;;;;;;;0.10;0.10;;;16.20;64.70;;;;;;5051745;28;20198;-51
2023/06/21 05:34:55;;;;;;;0.10;0.10;;;16.10;64.60;;;;;;5052024;28;20198;-47
2023/06/21 05:37:25;;;;;;;0.08;0.08;;;16.10;64.60;;;;;;5051669;28;20250;-48
2023/06/21 05:40:00;;;;;;;0.10;0.10;;;16.10;64.60;;;;;;5068025;28;20206;-48
2023/06/21 05:42:31;;;;;;;0.05;0.05;;;16.10;64.60;;;;;;5071633;28;20202;-49
2023/06/21 05:45:01;;;;;;;0.10;0.10;;;16.10;64.70;;;;;;5071461;28;20313;-51
2023/06/21 05:47:34;;;;;;;0.10;0.10;;;16.10;64.70;;;;;;5071492;28;20218;-48
2023/06/21 05:50:05;;;;;;;0.10;0.10;;;16.10;64.80;;;;;;5071252;28;20206;-47
2023/06/21 05:52:35;;;;;;;0.10;0.10;;;16.10;64.80;;;;;;5071027;28;20442;-52
2023/06/21 05:55:06;;;;;;;0.10;0.10;;;16.10;64.90;;;;;;5071924;28;20213;-47
2023/06/21 05:57:37;;;;;;;0.10;0.10;;;16.10;64.80;;;;;;5071870;28;20215;-48
2023/06/21 06:00:09;;;;;;;0.10;0.10;;;16.10;64.70;;;;;;5071359;28;20206;-51
2023/06/21 06:02:42;;;;;;;0.10;0.10;;;16.10;64.60;;;;;;5070963;28;20290;-51
2023/06/21 06:05:13;;;;;;;0.00;0.00;;;16.00;64.60;;;;;;5071402;28;20202;-47
2023/06/21 06:07:43;;;;;;;0.10;0.10;;;16.10;64.60;;;;;;5070901;28;20225;-52
2023/06/21 06:10:14;;;;;;;0.10;0.10;;;16.00;64.50;;;;;;5071605;28;20198;-50
2023/06/21 06:12:45;;;;;;;0.10;0.10;;;16.10;64.60;;;;;;5071106;28;20195;-48
2023/06/21 06:15:15;;;;;;;0.10;0.10;;;16.00;64.50;;;;;;5070973;28;20201;-50
2023/06/21 06:17:48;;;;;;;0.10;0.10;;;16.00;64.50;;;;;;5070820;28;20721;-51
2023/06/21 06:20:19;;;;;;;0.10;0.10;;;16.00;64.50;;;;;;5070901;28;20222;-53
2023/06/21 06:22:50;;;;;;;0.10;0.10;;;16.00;64.60;;;;;;5058999;28;20187;-52
2023/06/21 06:25:21;;;;;;;0.10;0.10;;;16.00;64.60;;;;;;5051391;28;20238;-51
2023/06/21 06:27:52;;;;;;;0.10;0.10;;;16.00;64.60;;;;;;5050399;28;20207;-51
2023/06/21 06:30:22;;;;;;;0.05;0.05;;;16.00;64.70;;;;;;5051231;28;20202;-51
2023/06/21 06:32:55;;;;;;;0.03;0.03;;;16.00;64.80;;;;;;5051287;28;20204;-53
2023/06/21 06:35:25;;;;;;;0.10;0.10;;;16.00;64.80;;;;;;5048618;28;20286;-52
2023/06/21 06:37:56;;;;;;;0.10;0.10;;;16.00;64.70;;;;;;5050771;28;20219;-57
2023/06/21 06:40:27;;;;;;;0.10;0.10;;;16.00;64.80;;;;;;5071214;28;20429;-51
2023/06/21 06:42:57;;;;;;;0.10;0.10;;;16.00;64.70;;;;;;5071087;28;20209;-55
2023/06/21 06:45:28;;;;;;;0.10;0.10;;;16.00;64.70;;;;;;5071154;28;20263;-53
2023/06/21 06:48:00;;;;;;;0.10;0.10;;;16.00;64.60;;;;;;5070539;28;20218;-51
2023/06/21 06:50:31;;;;;;;0.10;0.10;;;16.00;64.60;;;;;;5070797;28;20217;-50
2023/06/21 06:53:02;;;;;;;0.20;0.20;;;16.00;64.60;;;;;;5070876;28;20199;-54
2023/06/21 06:55:33;;;;;;;0.10;0.10;;;16.00;64.50;;;;;;5070966;28;20194;-48
2023/06/21 06:58:03;;;;;;;0.10;0.10;;;16.00;64.60;;;;;;5070844;28;20706;-51
2023/06/21 07:00:34;;;;;;;0.10;0.10;;;16.00;64.60;;;;;;5070365;28;20191;-51
2023/06/21 07:03:06;;;;;;;0.10;0.10;;;16.00;64.60;;;;;;5070089;28;20566;-49
2023/06/21 07:05:38;;;;;;;0.10;0.10;;;16.00;64.70;;;;;;5073303;28;20226;-52
2023/06/21 07:08:09;;;;;;;0.10;0.10;;;16.00;65.50;;;;;;5074193;28;20215;-53
2023/06/21 07:10:39;;;;;;;0.10;0.10;;;16.00;64.70;;;;;;5059560;28;20277;-50
2023/06/21 07:13:10;;;;;;;0.10;0.10;;;15.90;64.60;;;;;;5054049;28;20218;-53
2023/06/21 07:15:41;;;;;;;0.10;0.10;;;16.00;64.70;;;;;;5054384;28;20187;-51
2023/06/21 07:18:13;;;;;;;0.10;0.10;;;16.00;64.70;;;;;;5033853;28;20212;-48
2023/06/21 07:20:44;;;;;;;0.10;0.10;;;16.00;64.60;;;;;;5034647;28;20249;-53
2023/06/21 07:23:15;;;;;;;0.10;0.10;;;16.00;64.60;;;;;;5053127;28;20196;-54
2023/06/21 07:25:45;;;;;;;0.10;0.10;;;16.00;64.60;;;;;;5054544;28;20203;-53
2023/06/21 07:28:16;;;;;;;0.20;0.20;;;16.00;64.60;;;;;;5054879;28;20238;-52
2023/06/21 07:30:47;;;;;;;0.10;0.10;;;16.00;64.60;;;;;;5054351;28;20203;-51
2023/06/21 07:33:19;;;;;;;0.10;0.10;;;16.00;64.60;;;;;;5053554;28;20195;-53
2023/06/21 07:35:50;;;;;;;0.00;0.00;;;16.00;64.50;;;;;;5054271;28;20198;-54
2023/06/21 07:38:20;;;;;;;0.00;0.00;;;15.90;64.50;;;;;;5057394;28;20226;-50
2023/06/21 07:40:51;;;;;;;0.10;0.10;;;15.90;64.50;;;;;;5073860;28;20198;-53
2023/06/21 07:43:22;;;;;;;0.10;0.10;;;15.90;64.50;;;;;;5073630;28;20194;-49
2023/06/21 07:45:54;;;;;;;0.10;0.10;;;15.90;64.50;;;;;;5073828;28;20206;-51
2023/06/21 07:48:27;;;;;;;0.10;0.10;;;15.90;64.60;;;;;;5073250;28;20222;-52
2023/06/21 07:50:57;;;;;;;0.10;0.10;;;15.90;64.60;;;;;;5074222;28;20289;-51
2023/06/21 07:53:28;;;;;;;0.05;0.05;;;15.90;64.60;;;;;;5073536;28;20201;-50
2023/06/21 07:56:00;;;;;;;0.10;0.10;;;15.90;64.60;;;;;;5043824;28;20196;-54
2023/06/21 07:58:30;;;;;;;0.10;0.10;;;15.90;64.60;;;;;;5031805;28;20239;-56
2023/06/21 08:01:01;;;;;;;0.10;0.10;;;15.90;65.60;;;;;;5032452;28;20200;-55
2023/06/21 08:03:33;;;;;;;0.10;0.10;;;16.00;66.30;;;;;;5032780;28;20704;-55
2023/06/21 08:06:04;;;;;;;0.10;0.10;;;16.00;66.30;;;;;;5032971;28;20200;-58
2023/06/21 08:08:35;;;;;;;0.10;0.10;;;16.00;66.10;;;;;;5043930;28;20221;-58
2023/06/21 08:11:06;;;;;;;0.10;0.10;;;16.00;66.00;;;;;;5073954;28;20206;-56
2023/06/21 08:13:36;;;;;;;0.00;0.00;;;16.10;65.90;;;;;;5073533;28;20191;-54
2023/06/21 08:16:07;;;;;;;0.10;0.10;;;16.00;65.70;;;;;;5073381;28;20195;-57
2023/06/21 08:18:40;;;;;;;0.10;0.10;;;16.00;65.60;;;;;;5073131;28;20226;-55
2023/06/21 08:21:11;;;;;;;0.00;0.00;;;16.10;65.50;;;;;;5073001;28;20612;-58
2023/06/21 08:23:41;;;;;;;0.10;0.10;;;16.10;65.40;;;;;;5072912;28;20281;-53
2023/06/21 08:26:12;;;;;;;0.10;0.10;;;16.00;65.30;;;;;;5068879;28;20581;-55
2023/06/21 08:28:45;;;;;;;0.10;0.10;;;16.00;65.20;;;;;;5033001;28;20212;-54
2023/06/21 08:31:16;;;;;;;0.10;0.10;;;16.00;65.20;;;;;;5050752;28;20199;-53
2023/06/21 08:33:48;;;;;;;0.10;0.10;;;16.00;65.10;;;;;;5052884;28;20231;-52
2023/06/21 08:36:19;;;;;;;0.10;0.10;;;16.10;65.00;;;;;;5052943;28;20195;-53
2023/06/21 08:38:49;;;;;;;0.10;0.10;;;16.00;64.90;;;;;;5060221;28;20219;-55
2023/06/21 08:41:21;;;;;;;0.10;0.10;;;16.00;64.80;;;;;;5072659;28;20190;-54
2023/06/21 08:43:51;;;;;;;0.10;0.10;;;16.00;64.80;;;;;;5072505;28;20198;-55
2023/06/21 08:46:23;;;;;;;0.05;0.05;;;16.00;64.70;;;;;;5072066;28;20210;-55
2023/06/21 08:48:59;;;;;;;0.10;0.10;;;16.00;64.70;;;;;;5072486;28;20215;-54
2023/06/21 08:51:30;;;;;;;0.10;0.10;;;16.00;64.70;;;;;;5072729;28;20217;-52
2023/06/21 08:54:08;;;;;;;0.10;0.10;;;16.00;64.60;;;;;;5072191;28;20199;-50
2023/06/21 08:56:45;;;;;;;0.10;0.10;;;15.90;64.50;;;;;;5072301;28;20206;-54
2023/06/21 08:59:22;;;;;;;0.10;0.10;;;15.90;64.50;;;;;;5072357;28;20210;-52
2023/06/21 09:02:03;;;;;;;0.10;0.10;;;15.90;64.50;;;;;;5072141;28;20634;-52
2023/06/21 09:04:40;;;;;;;0.10;0.10;;;15.90;64.50;;;;;;5072464;28;20222;-58
2023/06/21 09:07:12;;;;;;;0.10;0.10;;;15.90;64.50;;;;;;5072439;28;20198;-56
2023/06/21 09:09:44;;;;;;;0.10;0.10;;;15.90;64.50;;;;;;5072399;28;20222;-57
2023/06/21 09:12:17;;;;;;;0.10;0.10;;;15.90;64.60;;;;;;5064311;28;20720;-57
2023/06/21 09:14:48;;;;;;;0.10;0.10;;;15.90;64.50;;;;;;5052323;28;20540;-56
2023/06/21 09:17:19;;;;;;;0.10;0.10;;;15.90;64.50;;;;;;5051486;28;20265;-57
2023/06/21 09:19:52;;;;;;;0.10;0.10;;;15.80;64.40;;;;;;5052333;28;20199;-56
2023/06/21 09:22:24;;;;;;;0.10;0.10;;;15.90;64.40;;;;;;5052290;28;20569;-57
2023/06/21 09:24:55;;;;;;;0.10;0.10;;;15.90;64.40;;;;;;5052081;28;20223;-57
2023/06/21 09:27:26;;;;;;;0.10;0.10;;;15.90;64.40;;;;;;5051173;28;20231;-56
2023/06/21 09:29:56;;;;;;;0.10;0.10;;;15.90;64.40;;;;;;5051589;28;20282;-57
2023/06/21 09:32:27;;;;;;;0.10;0.10;;;15.80;64.50;;;;;;5050877;28;20188;-56
2023/06/21 09:35:00;;;;;;;0.05;0.05;;;15.80;64.40;;;;;;5052161;28;20207;-54
2023/06/21 09:37:35;;;;;;;0.10;0.10;;;15.80;64.40;;;;;;5051443;28;20223;-53
2023/06/21 09:40:07;;;;;;;0.10;0.10;;;15.80;64.40;;;;;;5070013;28;20202;-53
2023/06/21 09:42:41;;;;;;;0.10;0.10;;;15.80;64.40;;;;;;5071884;28;20669;-54
2023/06/21 09:45:13;;;;;;;0.10;0.10;;;15.80;64.40;;;;;;5071357;28;20218;-56
2023/06/21 09:47:44;;;;;;;0.10;0.10;;;15.80;64.40;;;;;;5070519;28;20218;-54
2023/06/21 09:50:17;;;;;;;0.10;0.10;;;15.80;64.40;;;;;;5071666;28;20220;-55
2023/06/21 09:52:47;;;;;;;0.10;0.10;;;15.80;64.40;;;;;;5071821;28;20707;-54
2023/06/21 09:55:18;;;;;;;0.10;0.10;;;15.80;64.40;;;;;;5071441;28;20195;-55
2023/06/21 09:57:57;;;;;;;0.10;0.10;;;15.80;64.40;;;;;;5071549;28;20218;-55
2023/06/21 10:00:27;;;;;;;0.00;0.00;;;15.80;64.40;;;;;;5071501;28;20233;-54
2023/06/21 10:02:58;;;;;;;0.10;0.10;;;15.80;64.30;;;;;;5071401;28;20776;-56
2023/06/21 10:05:31;;;;;;;0.10;0.10;;;15.80;64.40;;;;;;5071586;28;20230;-53
2023/06/21 10:08:01;;;;;;;0.10;0.10;;;15.70;64.30;;;;;;5071583;28;20215;-52
2023/06/21 10:10:34;;;;;;;0.13;0.13;;;15.80;64.40;;;;;;5071181;28;20248;-53
2023/06/21 10:13:05;;;;;;;0.03;0.03;;;15.80;64.40;;;;;;5071357;28;20202;-55
2023/06/21 10:15:37;;;;;;;0.10;0.10;;;15.80;64.40;;;;;;5070992;28;20574;-53
2023/06/21 10:18:09;;;;;;;0.10;0.10;;;15.70;64.30;;;;;;5071475;28;20215;-55
2023/06/21 10:20:43;;;;;;;0.10;0.10;;;15.70;64.30;;;;;;5071015;28;20194;-53
2023/06/21 10:23:17;;;;;;;0.10;0.10;;;15.70;64.30;;;;;;5071250;28;20661;-56
2023/06/21 10:25:49;;;;;;;0.10;0.10;;;15.70;64.30;;;;;;5058306;28;20267;-57
2023/06/21 10:28:22;;;;;;;0.10;0.10;;;15.70;64.30;;;;;;5054041;28;20222;-56
2023/06/21 10:30:56;;;;;;;0.10;0.10;;;15.70;64.30;;;;;;5050427;28;20537;-54
2023/06/21 10:33:30;;;;;;;0.10;0.10;;;15.70;64.30;;;;;;5051042;28;20199;-52
2023/06/21 10:36:04;;;;;;;0.10;0.10;;;15.70;64.30;;;;;;5051872;28;20281;-53
2023/06/21 10:38:40;;;;;;;0.10;0.10;;;15.70;64.30;;;;;;5056571;28;20696;-54
2023/06/21 10:41:11;;;;;;;0.10;0.10;;;15.70;64.30;;;;;;5074794;28;20682;-55
2023/06/21 10:43:43;;;;;;;0.10;0.10;;;15.70;64.30;;;;;;5075184;28;20646;-54
2023/06/21 10:46:14;;;;;;;0.13;0.13;;;15.70;64.30;;;;;;5074898;28;20223;-55
2023/06/21 10:48:46;;;;;;;0.15;0.15;;;15.70;64.30;;;;;;5075078;28;20218;-55
2023/06/21 10:51:19;;;;;;;0.10;0.10;;;15.70;64.30;;;;;;5074927;28;20201;-53
2023/06/21 10:53:52;;;;;;;0.10;0.10;;;15.70;64.30;;;;;;5074840;28;20198;-55
2023/06/21 10:56:24;;;;;;;0.10;0.10;;;15.70;64.30;;;;;;5075092;28;20275;-55
2023/06/21 10:58:54;;;;;;;0.10;0.10;;;15.70;64.30;;;;;;5074798;28;20221;-51
2023/06/21 11:01:25;;;;;;;0.05;0.05;;;15.60;64.20;;;;;;5074857;28;20655;-52
2023/06/21 11:03:56;;;;;;;0.10;0.10;;;15.60;64.20;;;;;;5074914;28;20195;-56
2023/06/21 11:06:33;;;;;;;0.10;0.10;;;15.60;64.30;;;;;;5060761;28;20219;-52
2023/06/21 11:09:14;;;;;;;0.10;0.10;;;15.60;64.30;;;;;;5055689;28;20215;-53
2023/06/21 11:11:52;;;;;;;0.00;0.00;;;15.60;64.30;;;;;;5054451;28;20241;-53
2023/06/21 11:14:32;;;;;;;0.20;0.20;;;15.60;64.30;;;;;;5054736;28;20199;-54
2023/06/21 11:17:12;;;;;;;0.10;0.10;;;15.60;64.30;;;;;;5054565;28;20286;-54
2023/06/21 11:19:45;;;;;;;0.10;0.10;;;15.60;64.30;;;;;;5054641;28;20202;-55
2023/06/21 11:22:24;;;;;;;0.10;0.10;;;15.60;64.30;;;;;;5054458;28;20651;-55
2023/06/21 11:25:00;;;;;;;0.10;0.10;;;15.60;64.30;;;;;;5054057;28;20306;-52
2023/06/21 11:27:30;;;;;;;0.10;0.10;;;15.60;64.30;;;;;;5054756;28;20222;-54
2023/06/21 11:30:09;;;;;;;0.10;0.10;;;15.60;64.30;;;;;;5054162;28;20214;-57
2023/06/21 11:32:55;;;;;;;0.10;0.10;;;15.60;64.30;;;;;;5053905;28;20191;-56
2023/06/21 11:35:49;;;;;;;0.10;0.10;;;15.60;64.30;;;;;;5054727;28;20187;-55
2023/06/21 11:38:22;;;;;;;0.10;0.10;;;15.60;64.40;;;;;;5057371;28;20309;-50
2023/06/21 11:40:52;;;;;;;0.10;0.10;;;15.60;64.30;;;;;;5073963;28;20651;-54
2023/06/21 11:43:23;;;;;;;0.10;0.10;;;15.50;64.30;;;;;;5073810;28;20202;-57
2023/06/21 11:46:00;;;;;;;0.13;0.13;;;15.50;64.30;;;;;;5073608;28;20223;-54
2023/06/21 11:48:32;;;;;;;0.10;0.10;;;15.50;64.30;;;;;;5073707;28;20224;-55
2023/06/21 11:51:12;;;;;;;0.10;0.10;;;15.50;64.30;;;;;;5073389;28;20658;-54
2023/06/21 11:53:47;;;;;;;0.10;0.10;;;15.50;64.40;;;;;;5073281;28;20242;-55
2023/06/21 11:56:19;;;;;;;0.10;0.10;;;15.50;64.30;;;;;;5073156;28;20198;-57
2023/06/21 11:58:50;;;;;;;0.10;0.10;;;15.50;64.30;;;;;;5073205;28;20631;-54
2023/06/21 12:01:21;;;;;;;0.10;0.10;;;15.50;64.30;;;;;;5073440;28;20195;-54
2023/06/21 12:03:57;;;;;;;0.00;0.00;;;15.50;64.30;;;;;;5073655;28;20194;-54
2023/06/21 12:06:28;;;;;;;0.10;0.10;;;15.50;64.30;;;;;;5073569;28;20218;-53
2023/06/21 12:09:01;;;;;;;0.10;0.10;;;15.50;64.40;;;;;;5073306;28;20223;-51
2023/06/21 12:11:32;;;;;;;0.00;0.00;;;15.50;64.30;;;;;;5073551;28;20198;-57
2023/06/21 12:14:06;;;;;;;0.10;0.10;;;15.50;64.30;;;;;;5073455;28;20221;-54
2023/06/21 12:16:36;;;;;;;0.13;0.13;;;15.50;64.30;;;;;;5070286;28;20300;-53
2023/06/21 12:19:11;;;;;;;0.00;0.00;;;15.50;64.40;;;;;;5053069;28;20294;-56
2023/06/21 12:21:42;;;;;;;0.20;0.20;;;15.50;64.40;;;;;;5053421;28;20210;-57
2023/06/21 12:24:14;;;;;;;0.00;0.00;;;15.50;64.40;;;;;;5053213;28;20212;-57
2023/06/21 12:26:52;;;;;;;0.10;0.10;;;15.50;64.30;;;;;;5052882;28;20288;-54
2023/06/21 12:29:23;;;;;;;0.10;0.10;;;15.50;64.30;;;;;;5052916;28;20191;-56
2023/06/21 12:31:56;;;;;;;0.10;0.10;;;15.50;64.30;;;;;;5052644;28;20195;-57
2023/06/21 12:34:34;;;;;;;0.10;0.10;;;15.50;64.30;;;;;;5052922;28;20234;-58
2023/06/21 12:37:05;;;;;;;0.10;0.10;;;15.50;64.40;;;;;;5052711;28;20207;-55
2023/06/21 12:39:50;;;;;;;0.10;0.10;;;15.50;64.40;;;;;;5066756;28;20207;-56
2023/06/21 12:42:22;;;;;;;0.10;0.10;;;15.50;64.40;;;;;;5073188;28;20202;-53
2023/06/21 12:45:00;;;;;;;0.00;0.00;;;15.50;64.40;;;;;;5072973;28;20205;-53
2023/06/21 12:47:31;;;;;;;0.10;0.10;;;15.40;64.30;;;;;;5072821;28;20678;-55
2023/06/21 12:50:04;;;;;;;0.10;0.10;;;15.50;64.30;;;;;;5072900;28;20199;-49
2023/06/21 12:52:35;;;;;;;0.10;0.10;;;15.50;64.40;;;;;;5072821;28;20285;-51
2023/06/21 12:55:08;;;;;;;0.00;0.00;;;15.50;64.40;;;;;;5072566;28;20206;-51
2023/06/21 12:57:39;;;;;;;0.10;0.10;;;15.50;64.40;;;;;;5062699;28;20546;-50
2023/06/21 13:00:11;;;;;;;0.08;0.08;;;15.50;64.40;;;;;;5052174;28;20198;-50
2023/06/21 13:02:42;;;;;;;0.10;0.10;;;15.50;64.40;;;;;;5051250;28;20206;-54
2023/06/21 13:05:13;;;;;;;0.00;0.00;;;15.50;64.30;;;;;;5052328;28;20203;-49
2023/06/21 13:07:43;;;;;;;0.10;0.10;;;15.50;64.30;;;;;;5052464;28;20242;-50
2023/06/21 13:10:16;;;;;;;0.10;0.10;;;15.50;64.40;;;;;;5071460;28;20650;-52
2023/06/21 13:12:47;;;;;;;0.00;0.00;;;15.40;64.30;;;;;;5068422;28;20187;-54
2023/06/21 13:15:17;;;;;;;0.10;0.10;;;15.40;64.30;;;;;;5052259;28;20195;-49